Time;durP1;ratioP1;P1;durP2;ratioP2;P2;SDS_P1;SDS_P2;PMS_P1;PMS_P2;Temp;Humidity;BMP_temperature;BMP_pressure;BME280_temperature;BME280_humidity;BME280_pressure;Samples;Min_cycle;Max_cycle;Signal;HPM_P1;HPM_P2
2024/01/28 00:03:45;;;;;;;30.33;19.60;;;23.00;45.40;;;;;;10472539;28;20145;-60
2024/01/28 00:08:47;;;;;;;29.88;20.05;;;22.90;45.40;;;;;;10480737;28;20045;-59
2024/01/28 00:13:50;;;;;;;27.10;18.80;;;22.90;45.40;;;;;;10473300;28;20083;-60
2024/01/28 00:18:57;;;;;;;27.83;19.33;;;23.00;45.30;;;;;;10474649;28;20076;-60
2024/01/28 00:23:59;;;;;;;26.77;18.70;;;22.90;45.20;;;;;;10481479;28;20048;-59
2024/01/28 00:29:02;;;;;;;25.63;18.70;;;22.90;45.40;;;;;;10484084;28;20045;-60
2024/01/28 00:34:04;;;;;;;25.92;18.42;;;22.90;45.30;;;;;;10477245;28;20584;-60
2024/01/28 00:39:06;;;;;;;26.83;19.17;;;22.90;45.20;;;;;;10480303;28;20068;-60
2024/01/28 00:44:09;;;;;;;24.65;17.88;;;22.80;45.30;;;;;;10469597;28;20063;-61
2024/01/28 00:49:11;;;;;;;23.80;17.25;;;22.80;45.20;;;;;;10468746;28;20079;-58
2024/01/28 00:54:13;;;;;;;27.23;18.42;;;22.80;45.30;;;;;;10476788;28;20056;-60
2024/01/28 00:59:16;;;;;;;24.45;17.42;;;22.90;45.20;;;;;;10477023;28;20068;-59
2024/01/28 01:04:17;;;;;;;26.52;18.25;;;22.90;45.10;;;;;;10482921;28;20044;-60
2024/01/28 01:09:20;;;;;;;27.63;19.70;;;22.70;45.40;;;;;;10474710;28;20094;-61
2024/01/28 01:14:23;;;;;;;33.55;21.60;;;22.80;45.60;;;;;;10471197;28;20037;-61
2024/01/28 01:19:25;;;;;;;28.17;20.27;;;22.80;45.80;;;;;;10461111;28;20056;-61
2024/01/28 01:24:26;;;;;;;28.77;20.70;;;22.80;45.90;;;;;;10472762;28;20049;-61
2024/01/28 01:29:29;;;;;;;28.02;21.10;;;22.80;45.90;;;;;;10472705;28;20036;-58
2024/01/28 01:34:31;;;;;;;26.75;20.70;;;22.90;45.70;;;;;;10469740;28;20053;-58
2024/01/28 01:39:32;;;;;;;27.05;19.77;;;22.80;46.10;;;;;;10482281;28;20534;-59
2024/01/28 01:44:35;;;;;;;26.63;18.98;;;22.90;45.90;;;;;;10485234;28;20080;-61
2024/01/28 01:49:37;;;;;;;25.25;18.42;;;23.00;45.70;;;;;;10466712;28;20106;-60
2024/01/28 01:54:39;;;;;;;25.23;17.25;;;23.00;45.70;;;;;;10452921;28;20065;-58
2024/01/28 01:59:42;;;;;;;25.65;17.80;;;22.90;45.80;;;;;;10455654;28;20120;-60
2024/01/28 02:04:44;;;;;;;26.25;18.60;;;22.90;45.80;;;;;;10474277;28;20499;-60
2024/01/28 02:09:46;;;;;;;24.40;17.48;;;22.90;45.90;;;;;;10452316;28;20163;-61
2024/01/28 02:14:49;;;;;;;25.17;17.48;;;22.90;45.70;;;;;;10469931;28;20488;-61
2024/01/28 02:19:51;;;;;;;24.83;16.88;;;22.90;45.80;;;;;;10476874;28;20472;-61
2024/01/28 02:24:54;;;;;;;24.88;16.15;;;22.90;45.90;;;;;;10492005;28;20072;-61
2024/01/28 02:29:55;;;;;;;22.30;15.93;;;22.90;45.80;;;;;;10473376;28;20072;-61
2024/01/28 02:34:57;;;;;;;21.60;15.57;;;22.80;46.20;;;;;;10465965;28;20106;-61
2024/01/28 02:40:00;;;;;;;20.50;15.48;;;22.80;46.30;;;;;;10476542;28;20041;-61
2024/01/28 02:45:02;;;;;;;20.75;15.02;;;22.90;46.20;;;;;;10477585;28;20049;-61
2024/01/28 02:50:04;;;;;;;21.17;15.30;;;22.80;46.30;;;;;;10478112;28;20056;-61
2024/01/28 02:55:08;;;;;;;20.75;14.98;;;22.80;46.30;;;;;;10488706;28;20397;-61
2024/01/28 03:00:11;;;;;;;21.58;14.23;;;22.80;46.30;;;;;;10483974;28;20419;-61
2024/01/28 03:05:12;;;;;;;19.20;13.95;;;22.80;46.40;;;;;;10477460;28;20683;-61
2024/01/28 03:10:15;;;;;;;20.08;13.80;;;22.80;46.50;;;;;;10486184;28;20067;-61
2024/01/28 03:15:18;;;;;;;18.08;13.85;;;22.90;46.40;;;;;;10472604;28;20068;-60
2024/01/28 03:20:20;;;;;;;19.27;13.02;;;22.80;46.40;;;;;;10490310;28;20392;-61
2024/01/28 03:25:23;;;;;;;15.20;12.23;;;22.80;46.50;;;;;;10481327;28;20103;-61
2024/01/28 03:30:25;;;;;;;18.50;12.05;;;22.80;46.20;;;;;;10489552;28;20068;-59
2024/01/28 03:35:26;;;;;;;18.85;11.68;;;22.70;46.10;;;;;;10492337;28;20080;-57
2024/01/28 03:40:29;;;;;;;14.32;11.00;;;22.60;46.00;;;;;;10488914;28;20080;-61
2024/01/28 03:45:31;;;;;;;15.15;10.32;;;22.60;46.00;;;;;;10476721;28;20045;-60
2024/01/28 03:50:33;;;;;;;13.98;10.30;;;22.50;45.90;;;;;;10468838;28;20060;-61
2024/01/28 03:55:36;;;;;;;13.70;10.07;;;22.40;45.80;;;;;;10479444;28;20048;-61
2024/01/28 04:00:38;;;;;;;15.10;9.30;;;22.60;45.40;;;;;;10472626;28;20064;-61
2024/01/28 04:05:39;;;;;;;14.18;10.23;;;22.50;45.40;;;;;;10476838;28;20522;-61
2024/01/28 04:10:42;;;;;;;13.38;9.48;;;22.70;45.00;;;;;;10485798;28;20059;-60
2024/01/28 04:15:44;;;;;;;11.43;8.68;;;23.00;44.60;;;;;;10487879;28;20037;-60
2024/01/28 04:20:46;;;;;;;11.20;9.10;;;23.20;43.90;;;;;;10483723;28;20044;-61
2024/01/28 04:25:49;;;;;;;10.27;8.30;;;23.40;43.50;;;;;;10470101;28;20052;-61
2024/01/28 04:30:51;;;;;;;11.60;8.48;;;23.40;43.30;;;;;;10472082;28;20144;-60
2024/01/28 04:35:53;;;;;;;9.68;8.02;;;23.50;43.10;;;;;;10479482;28;20166;-59
2024/01/28 04:40:56;;;;;;;10.40;7.60;;;23.50;42.80;;;;;;10473907;28;20523;-59
2024/01/28 04:45:58;;;;;;;8.68;7.22;;;23.50;42.60;;;;;;10484407;28;20072;-61
2024/01/28 04:50:59;;;;;;;9.48;7.60;;;23.50;42.60;;;;;;10487102;28;20044;-59
2024/01/28 04:56:02;;;;;;;9.63;6.80;;;23.50;42.60;;;;;;10491850;28;20040;-61
2024/01/28 05:01:05;;;;;;;8.38;7.22;;;23.40;42.50;;;;;;10477940;28;20132;-61
2024/01/28 05:06:07;;;;;;;8.95;6.78;;;23.50;42.40;;;;;;10468474;28;20458;-58
2024/01/28 05:11:10;;;;;;;9.05;6.90;;;23.50;42.20;;;;;;10482331;28;20043;-60
2024/01/28 05:16:12;;;;;;;8.38;6.57;;;23.40;42.30;;;;;;10465499;28;20044;-59
2024/01/28 05:21:13;;;;;;;8.35;6.57;;;23.30;42.50;;;;;;10473294;28;20048;-61
2024/01/28 05:26:17;;;;;;;7.90;6.50;;;23.40;42.20;;;;;;10471015;28;20072;-60
2024/01/28 05:31:18;;;;;;;7.00;5.85;;;23.60;42.00;;;;;;10480100;28;20052;-60
2024/01/28 05:36:20;;;;;;;7.78;5.95;;;23.60;41.80;;;;;;10477288;28;20079;-60
2024/01/28 05:41:23;;;;;;;7.30;5.68;;;23.50;41.80;;;;;;10469595;28;20075;-61
2024/01/28 05:46:25;;;;;;;8.25;5.63;;;23.50;41.80;;;;;;10466311;28;20068;-61
2024/01/28 05:51:27;;;;;;;7.03;5.35;;;23.50;41.80;;;;;;10480023;28;20087;-60
2024/01/28 05:56:30;;;;;;;6.80;5.28;;;23.40;41.80;;;;;;10474501;28;20063;-59
2024/01/28 06:01:31;;;;;;;5.57;4.38;;;23.40;41.80;;;;;;10465731;28;20479;-61
2024/01/28 06:06:33;;;;;;;5.78;4.63;;;23.40;41.60;;;;;;10470436;28;20084;-60
2024/01/28 06:11:36;;;;;;;6.78;4.85;;;23.60;41.20;;;;;;10460898;28;20475;-60
2024/01/28 06:16:38;;;;;;;6.00;4.68;;;23.60;41.20;;;;;;10462812;28;20073;-59
2024/01/28 06:21:40;;;;;;;5.45;4.45;;;23.50;41.10;;;;;;10468175;28;20484;-58
2024/01/28 06:26:43;;;;;;;7.53;4.90;;;23.60;40.90;;;;;;10471015;28;20075;-60
2024/01/28 06:31:46;;;;;;;5.45;4.43;;;23.60;40.60;;;;;;10472954;28;20041;-61
2024/01/28 06:36:47;;;;;;;6.32;4.30;;;23.50;40.80;;;;;;10475427;28;20059;-59
2024/01/28 06:41:50;;;;;;;5.30;4.00;;;23.50;40.90;;;;;;10471175;28;20041;-60
2024/01/28 06:46:52;;;;;;;5.88;4.30;;;23.30;41.00;;;;;;10476889;28;20048;-61
2024/01/28 06:51:54;;;;;;;5.35;4.50;;;23.30;41.10;;;;;;10472867;28;20084;-60
2024/01/28 06:56:57;;;;;;;6.47;4.35;;;23.30;41.50;;;;;;10477341;28;20071;-60
2024/01/28 07:01:59;;;;;;;5.75;4.05;;;23.30;41.80;;;;;;10476055;28;20045;-61
2024/01/28 07:07:00;;;;;;;5.65;4.00;;;23.20;42.20;;;;;;10484404;28;20094;-59
2024/01/28 07:12:05;;;;;;;5.15;4.20;;;23.40;42.30;;;;;;10481738;28;20523;-61
2024/01/28 07:17:08;;;;;;;5.35;3.88;;;23.30;42.50;;;;;;10475464;28;20110;-61
2024/01/28 07:22:11;;;;;;;8.93;6.50;;;23.30;43.00;;;;;;10487162;28;20053;-61
2024/01/28 07:27:14;;;;;;;11.65;7.13;;;23.50;43.00;;;;;;10482965;28;20496;-61
2024/01/28 07:32:16;;;;;;;8.68;6.53;;;23.30;42.80;;;;;;10482347;28;20041;-61
2024/01/28 07:37:18;;;;;;;8.00;6.47;;;23.30;42.80;;;;;;10475657;28;20476;-62
2024/01/28 07:42:21;;;;;;;8.18;6.15;;;23.40;42.50;;;;;;10477771;28;20404;-62
2024/01/28 07:47:22;;;;;;;7.68;5.90;;;23.50;42.30;;;;;;10484163;28;20040;-62
2024/01/28 07:52:24;;;;;;;7.47;5.90;;;23.50;42.30;;;;;;10485535;28;20068;-61
2024/01/28 07:57:27;;;;;;;9.05;6.05;;;23.60;42.40;;;;;;10482143;28;20055;-60
2024/01/28 08:02:29;;;;;;;7.88;5.65;;;23.50;42.70;;;;;;10487206;28;20044;-60
2024/01/28 08:07:30;;;;;;;7.45;5.47;;;23.50;42.90;;;;;;10477115;28;20080;-58
2024/01/28 08:12:33;;;;;;;6.85;4.68;;;23.50;42.90;;;;;;10478160;28;20093;-59
2024/01/28 08:17:35;;;;;;;8.77;4.80;;;23.40;40.30;;;;;;10477310;28;20076;-59
2024/01/28 08:22:37;;;;;;;11.32;3.97;;;23.30;40.10;;;;;;10484398;28;20458;-58
2024/01/28 08:27:51;;;;;;;7.35;3.92;;;23.30;40.00;;;;;;10469060;22;20467;-87
2024/01/28 08:32:54;;;;;;;10.93;4.28;;;23.40;40.40;;;;;;10445963;28;20044;-86
2024/01/28 08:38:06;;;;;;;8.95;4.15;;;23.50;40.10;;;;;;10437058;28;20077;-88
2024/01/28 08:43:18;;;;;;;11.13;3.60;;;23.50;38.90;;;;;;10432859;28;20044;-88
2024/01/28 08:48:31;;;;;;;10.55;3.58;;;23.30;38.00;;;;;;10453126;28;20041;-88
2024/01/28 08:53:33;;;;;;;14.90;4.10;;;23.30;38.10;;;;;;10439605;28;20076;-87
2024/01/28 08:58:38;;;;;;;97.60;21.75;;;23.30;37.70;;;;;;10442324;28;20045;-88
2024/01/28 09:03:53;;;;;;;107.07;23.23;;;23.40;37.60;;;;;;10450241;28;20041;-88
2024/01/28 09:09:08;;;;;;;39.00;10.20;;;23.40;37.10;;;;;;10452032;28;20048;-88
2024/01/28 09:14:21;;;;;;;21.58;6.88;;;23.10;35.40;;;;;;10443709;28;20094;-89
2024/01/28 09:19:36;;;;;;;24.75;4.95;;;23.00;35.70;;;;;;10451700;28;20082;-88
2024/01/28 09:25:07;;;;;;;13.23;4.53;;;22.80;35.30;;;;;;10455569;28;20397;-88
2024/01/28 09:30:14;;;;;;;16.00;4.38;;;23.00;34.80;;;;;;10412191;28;20084;-88
2024/01/28 09:35:16;;;;;;;9.68;2.83;;;23.10;34.70;;;;;;10452852;28;20044;-89
2024/01/28 09:40:18;;;;;;;7.82;2.85;;;23.10;34.20;;;;;;10451502;28;20049;-91
2024/01/28 09:45:21;;;;;;;5.30;2.78;;;23.00;34.30;;;;;;10444286;28;20436;-89
2024/01/28 09:50:23;;;;;;;8.55;3.22;;;23.00;34.70;;;;;;10451802;28;20071;-89
2024/01/28 09:55:30;;;;;;;7.47;3.25;;;23.10;34.30;;;;;;10452667;28;20045;-91
2024/01/28 10:00:37;;;;;;;10.32;3.13;;;23.20;34.30;;;;;;10447344;28;20491;-90
2024/01/28 10:05:41;;;;;;;9.85;3.17;;;23.30;33.70;;;;;;10461281;28;20045;-88
2024/01/28 10:10:43;;;;;;;10.23;2.90;;;23.20;34.20;;;;;;10456289;28;20037;-90
2024/01/28 10:15:56;;;;;;;10.18;2.75;;;23.00;34.80;;;;;;10457031;28;20086;-90
2024/01/28 10:21:07;;;;;;;7.68;2.20;;;22.90;35.70;;;;;;10456024;28;20094;-89
2024/01/28 10:26:21;;;;;;;6.13;2.50;;;23.10;34.80;;;;;;10457146;28;20136;-89
2024/01/28 10:31:36;;;;;;;11.60;2.70;;;23.40;33.50;;;;;;10444390;28;20041;-90
2024/01/28 10:36:39;;;;;;;7.95;3.08;;;23.50;33.50;;;;;;10454363;28;20091;-91
2024/01/28 10:41:53;;;;;;;15.93;3.72;;;23.40;34.20;;;;;;10465668;28;20071;-90
2024/01/28 10:47:08;;;;;;;8.25;3.17;;;23.40;33.80;;;;;;10465944;28;20510;-91
2024/01/28 10:52:12;;;;;;;9.02;3.42;;;23.30;33.70;;;;;;10466054;28;20080;-90
2024/01/28 10:57:14;;;;;;;11.52;3.25;;;23.30;33.70;;;;;;10463754;28;20075;-93
2024/01/28 11:02:33;;;;;;;9.50;2.50;;;23.00;33.60;;;;;;10459805;28;20052;-89
2024/01/28 11:19:19;;;;;;;7.43;2.78;;;23.30;33.70;;;;;;10437322;28;20519;-91
2024/01/28 11:24:24;;;;;;;6.70;2.30;;;23.10;34.30;;;;;;10456441;28;20049;-90
2024/01/28 11:29:39;;;;;;;11.88;2.45;;;22.80;35.40;;;;;;10462166;28;20055;-90
2024/01/28 11:34:53;;;;;;;5.85;2.25;;;23.00;35.10;;;;;;10456494;28;20050;-91
2024/01/28 11:40:04;;;;;;;6.00;2.30;;;23.10;35.10;;;;;;10452386;28;20132;-89
2024/01/28 11:45:10;;;;;;;8.60;2.53;;;23.10;34.50;;;;;;10466616;28;20033;-89
2024/01/28 11:50:23;;;;;;;6.53;2.65;;;23.20;34.00;;;;;;10461809;28;20052;-91
2024/01/28 11:55:47;;;;;;;7.50;2.08;;;23.00;35.00;;;;;;10456563;28;20466;-90
2024/01/28 12:01:24;;;;;;;5.30;2.22;;;23.00;35.70;;;;;;10465525;28;20068;-91
2024/01/28 12:06:32;;;;;;;6.38;2.38;;;23.00;36.10;;;;;;10453625;28;20052;-90
2024/01/28 12:11:41;;;;;;;4.25;2.10;;;23.40;33.80;;;;;;10442701;28;20087;-91
2024/01/28 12:16:55;;;;;;;6.60;2.30;;;23.20;33.50;;;;;;10453213;28;20044;-91
2024/01/28 12:27:33;;;;;;;5.85;2.35;;;23.00;34.90;;;;;;10456211;28;20041;-88
2024/01/28 12:33:02;;;;;;;8.63;2.35;;;23.20;35.10;;;;;;10443314;28;20049;-88
2024/01/28 12:38:18;;;;;;;6.15;2.00;;;23.20;34.10;;;;;;10451367;28;20144;-90
2024/01/28 12:43:31;;;;;;;5.28;1.73;;;22.80;34.20;;;;;;10439564;28;20049;-90
2024/01/28 12:48:46;;;;;;;8.15;2.03;;;22.80;34.30;;;;;;10450390;28;20047;-89
2024/01/28 12:53:54;;;;;;;7.10;1.95;;;22.70;34.30;;;;;;10467517;28;20128;-90
2024/01/28 13:03:59;;;;;;;6.65;1.90;;;22.80;35.10;;;;;;10482854;28;20129;-47
2024/01/28 13:09:02;;;;;;;7.97;2.33;;;22.70;34.20;;;;;;10468444;28;20060;-45
2024/01/28 13:14:03;;;;;;;5.18;2.10;;;22.30;36.20;;;;;;10456660;28;20049;-51
2024/01/28 13:19:05;;;;;;;5.88;1.83;;;22.30;34.80;;;;;;10452703;28;20063;-49
2024/01/28 13:24:08;;;;;;;4.95;1.92;;;22.50;33.90;;;;;;10454754;28;20068;-50
2024/01/28 13:29:10;;;;;;;3.33;1.70;;;22.70;33.40;;;;;;10465129;28;20132;-49
2024/01/28 13:34:12;;;;;;;3.67;1.80;;;22.50;33.20;;;;;;10460376;28;20041;-52
2024/01/28 13:39:15;;;;;;;3.42;1.63;;;22.40;32.80;;;;;;10455467;28;20049;-50
2024/01/28 13:44:17;;;;;;;3.72;1.88;;;22.40;32.50;;;;;;10450334;28;20052;-48
2024/01/28 13:49:18;;;;;;;4.03;1.73;;;22.40;32.70;;;;;;10461721;28;20075;-46
2024/01/28 13:54:21;;;;;;;4.38;1.70;;;22.50;32.20;;;;;;10450281;28;20049;-45
2024/01/28 13:59:23;;;;;;;4.90;2.10;;;22.50;31.90;;;;;;10458270;28;20135;-45
2024/01/28 14:04:25;;;;;;;3.17;1.55;;;22.50;31.60;;;;;;10458962;28;20416;-47
2024/01/28 14:09:28;;;;;;;4.95;1.98;;;22.50;31.70;;;;;;10461532;28;20128;-45
2024/01/28 14:14:30;;;;;;;3.35;1.80;;;22.60;31.40;;;;;;10457106;28;20055;-51
2024/01/28 14:19:31;;;;;;;3.08;1.67;;;22.60;31.20;;;;;;10451249;28;20167;-46
2024/01/28 14:24:34;;;;;;;3.10;1.60;;;22.70;31.00;;;;;;10447253;28;20049;-47
2024/01/28 14:29:36;;;;;;;4.47;1.70;;;22.60;31.30;;;;;;10456361;28;20483;-45
2024/01/28 14:34:38;;;;;;;3.55;1.45;;;22.60;31.30;;;;;;10448514;28;20123;-45
2024/01/28 14:39:42;;;;;;;6.03;1.83;;;22.60;31.30;;;;;;10457541;28;20151;-47
2024/01/28 14:44:43;;;;;;;6.18;1.80;;;22.90;31.80;;;;;;10465293;28;20110;-50
2024/01/28 14:49:45;;;;;;;4.68;1.88;;;23.30;31.60;;;;;;10468052;28;20384;-48
2024/01/28 14:54:48;;;;;;;3.50;1.73;;;23.20;31.80;;;;;;10469461;28;20044;-46
2024/01/28 14:59:49;;;;;;;5.13;1.95;;;23.20;31.90;;;;;;10459502;28;20067;-49
2024/01/28 15:04:51;;;;;;;4.40;2.15;;;23.10;32.20;;;;;;10472711;28;20573;-51
2024/01/28 15:09:55;;;;;;;3.58;1.48;;;23.00;32.50;;;;;;10460280;28;20072;-51
2024/01/28 15:14:56;;;;;;;5.15;2.08;;;23.00;33.10;;;;;;10461109;28;20051;-52
2024/01/28 15:19:58;;;;;;;4.72;2.10;;;23.10;33.60;;;;;;10462843;28;20120;-47
2024/01/28 15:25:01;;;;;;;7.00;2.00;;;23.00;32.80;;;;;;10465266;28;20132;-46
2024/01/28 15:30:02;;;;;;;3.60;1.58;;;23.10;34.10;;;;;;10461594;28;20124;-47
2024/01/28 15:35:05;;;;;;;3.72;2.17;;;23.20;36.00;;;;;;10461156;28;20054;-51
2024/01/28 15:40:11;;;;;;;4.10;1.60;;;23.10;37.60;;;;;;10461131;28;20052;-52
2024/01/28 15:45:13;;;;;;;3.70;1.70;;;22.90;38.50;;;;;;10458220;28;20041;-50
2024/01/28 15:50:14;;;;;;;4.40;1.70;;;22.80;38.80;;;;;;10458277;28;20125;-49
2024/01/28 15:55:17;;;;;;;4.57;1.65;;;22.90;38.30;;;;;;10461203;28;20049;-50
2024/01/28 16:00:19;;;;;;;7.25;1.98;;;23.10;38.00;;;;;;10467449;28;20135;-49
2024/01/28 16:05:21;;;;;;;6.95;1.70;;;23.10;37.70;;;;;;10464116;28;20624;-49
2024/01/28 16:10:24;;;;;;;3.55;1.50;;;23.00;38.10;;;;;;10464382;28;20075;-49
2024/01/28 16:15:26;;;;;;;7.03;1.98;;;23.10;39.00;;;;;;10453704;28;20059;-50
2024/01/28 16:20:28;;;;;;;4.55;1.60;;;23.20;38.30;;;;;;10459324;28;20465;-48
2024/01/28 16:25:31;;;;;;;5.30;1.70;;;23.20;39.00;;;;;;10461419;28;20044;-49
2024/01/28 16:30:33;;;;;;;4.97;1.90;;;23.10;39.50;;;;;;10450871;28;20068;-47
2024/01/28 16:35:36;;;;;;;5.22;1.50;;;23.20;39.30;;;;;;10463829;28;20041;-47
2024/01/28 16:40:38;;;;;;;5.97;2.28;;;23.10;39.50;;;;;;10462218;28;20041;-49
2024/01/28 16:45:40;;;;;;;6.97;2.10;;;23.10;37.60;;;;;;10458803;28;20050;-48
2024/01/28 16:50:42;;;;;;;5.75;2.20;;;23.10;36.20;;;;;;10452925;28;20090;-46
2024/01/28 16:55:45;;;;;;;4.72;2.20;;;23.00;35.90;;;;;;10452533;28;20481;-45
2024/01/28 17:00:46;;;;;;;4.43;2.08;;;23.20;35.10;;;;;;10457914;28;20135;-45
2024/01/28 17:05:48;;;;;;;7.75;3.40;;;23.10;35.00;;;;;;10452819;28;20135;-53
2024/01/28 17:10:51;;;;;;;5.43;2.83;;;23.10;34.70;;;;;;10456227;28;20061;-45
2024/01/28 17:15:52;;;;;;;5.15;3.10;;;22.90;34.50;;;;;;10463947;28;20045;-50
2024/01/28 17:20:54;;;;;;;4.15;2.90;;;22.80;34.20;;;;;;10458514;28;20044;-46
2024/01/28 17:25:57;;;;;;;5.85;2.97;;;22.80;34.60;;;;;;10455097;28;20135;-48
2024/01/28 17:30:59;;;;;;;7.07;2.58;;;23.00;35.70;;;;;;10447123;28;20044;-46
2024/01/28 17:36:00;;;;;;;6.30;2.60;;;23.10;36.90;;;;;;10459623;28;20053;-45
2024/01/28 17:41:03;;;;;;;7.78;2.30;;;23.10;37.30;;;;;;10455118;28;20079;-50
2024/01/28 17:46:05;;;;;;;6.50;2.40;;;23.20;37.60;;;;;;10457168;28;20041;-47
2024/01/28 17:51:07;;;;;;;6.15;2.47;;;23.10;38.70;;;;;;10451107;28;20060;-47
2024/01/28 17:56:10;;;;;;;7.28;2.20;;;23.60;40.10;;;;;;10460906;28;20053;-47
2024/01/28 18:01:12;;;;;;;7.00;2.20;;;23.90;40.60;;;;;;10460447;28;20049;-45
2024/01/28 18:06:14;;;;;;;4.47;1.90;;;24.00;40.50;;;;;;10444661;28;20099;-46
2024/01/28 18:11:17;;;;;;;12.43;2.40;;;24.10;40.10;;;;;;10451203;28;20041;-47
2024/01/28 18:16:21;;;;;;;15.15;2.55;;;23.90;39.60;;;;;;10447897;28;20050;-46
2024/01/28 18:21:23;;;;;;;4.35;1.98;;;24.10;39.70;;;;;;10454884;28;20049;-47
2024/01/28 18:26:27;;;;;;;8.35;2.40;;;24.20;39.20;;;;;;10465569;28;20045;-46
2024/01/28 18:31:29;;;;;;;4.90;1.77;;;24.20;39.70;;;;;;10464764;28;20131;-49
2024/01/28 18:36:31;;;;;;;6.53;2.03;;;24.10;40.00;;;;;;10463436;28;20144;-51
2024/01/28 18:41:34;;;;;;;4.35;2.00;;;24.80;39.40;;;;;;10460669;28;20060;-49
2024/01/28 18:46:35;;;;;;;3.35;2.00;;;24.70;39.50;;;;;;10451386;28;20048;-48
2024/01/28 18:51:37;;;;;;;2.92;1.83;;;24.50;39.80;;;;;;10465152;28;20066;-49
2024/01/28 18:56:40;;;;;;;4.03;1.95;;;24.20;40.00;;;;;;10461804;28;20065;-47
2024/01/28 19:01:42;;;;;;;7.18;1.90;;;24.40;40.30;;;;;;10445105;28;20059;-48
2024/01/28 19:06:43;;;;;;;7.85;1.88;;;24.90;39.90;;;;;;10457864;28;20053;-49
2024/01/28 19:11:46;;;;;;;3.95;2.08;;;25.00;39.90;;;;;;10461626;28;20044;-46
2024/01/28 19:16:48;;;;;;;4.20;2.30;;;24.80;39.80;;;;;;10465467;28;20063;-48
2024/01/28 19:21:50;;;;;;;6.68;2.45;;;24.40;40.40;;;;;;10454208;28;20055;-46
2024/01/28 19:26:53;;;;;;;5.55;2.50;;;24.30;40.70;;;;;;10453911;28;20059;-45
2024/01/28 19:31:54;;;;;;;7.90;2.95;;;24.10;40.70;;;;;;10458123;28;20048;-46
2024/01/28 19:36:57;;;;;;;12.70;3.33;;;24.00;40.80;;;;;;10460176;28;20076;-46
2024/01/28 19:42:00;;;;;;;7.55;3.35;;;24.10;40.70;;;;;;10459127;28;20099;-47
2024/01/28 19:47:01;;;;;;;5.50;3.60;;;24.00;40.70;;;;;;10463238;28;20327;-46
2024/01/28 19:52:03;;;;;;;7.68;4.40;;;23.80;41.20;;;;;;10459520;28;20041;-45
2024/01/28 19:57:07;;;;;;;7.43;4.20;;;23.80;41.20;;;;;;10456886;28;20064;-47
2024/01/28 20:02:08;;;;;;;7.30;4.63;;;23.80;41.30;;;;;;10446699;28;20041;-46
2024/01/28 20:07:14;;;;;;;8.10;4.78;;;23.70;41.20;;;;;;10459058;28;20140;-45
2024/01/28 20:12:17;;;;;;;8.55;5.60;;;23.60;41.20;;;;;;10456467;28;20045;-48
2024/01/28 20:17:19;;;;;;;7.40;5.30;;;23.60;41.20;;;;;;10457096;28;20088;-46
2024/01/28 20:22:20;;;;;;;9.38;5.07;;;23.80;41.00;;;;;;10464909;28;20049;-49
2024/01/28 20:27:24;;;;;;;7.80;4.95;;;23.70;41.30;;;;;;10456977;28;20051;-46
2024/01/28 20:32:26;;;;;;;8.80;5.90;;;23.60;41.60;;;;;;10461733;28;20048;-46
2024/01/28 20:37:27;;;;;;;10.85;6.60;;;23.60;41.70;;;;;;10451635;28;20719;-45
2024/01/28 20:42:30;;;;;;;12.05;7.03;;;23.60;41.90;;;;;;10451769;28;20090;-45
2024/01/28 20:47:32;;;;;;;11.63;7.63;;;23.60;41.80;;;;;;10457666;28;20054;-45
2024/01/28 20:52:33;;;;;;;11.75;8.10;;;23.50;42.40;;;;;;10461126;28;20040;-45
2024/01/28 20:57:36;;;;;;;11.90;8.38;;;23.50;42.50;;;;;;10460574;28;20551;-50
2024/01/28 21:02:38;;;;;;;16.98;8.77;;;23.40;42.60;;;;;;10458878;28;20110;-48
2024/01/28 21:07:40;;;;;;;13.98;8.93;;;23.40;42.60;;;;;;10451185;28;20049;-45
2024/01/28 21:12:43;;;;;;;12.18;9.07;;;23.40;42.30;;;;;;10457551;28;20055;-47
2024/01/28 21:17:44;;;;;;;19.52;10.38;;;23.50;42.30;;;;;;10444265;28;20550;-45
2024/01/28 21:22:46;;;;;;;19.83;10.57;;;23.40;42.20;;;;;;10455852;28;20135;-47
2024/01/28 21:27:50;;;;;;;19.20;11.48;;;23.20;42.60;;;;;;10457375;28;20068;-45
2024/01/28 21:32:52;;;;;;;18.95;12.13;;;23.30;42.20;;;;;;10458148;28;20053;-45
2024/01/28 21:37:53;;;;;;;17.85;12.02;;;23.30;42.20;;;;;;10456049;28;20136;-45
2024/01/28 21:42:57;;;;;;;17.90;11.85;;;23.30;42.60;;;;;;10451430;28;20079;-46
2024/01/28 21:47:58;;;;;;;19.48;12.25;;;23.40;43.80;;;;;;10456617;28;20049;-47
2024/01/28 21:53:01;;;;;;;21.02;13.88;;;23.40;43.20;;;;;;10451600;28;20040;-48
2024/01/28 21:58:04;;;;;;;20.40;13.05;;;23.30;44.00;;;;;;10457502;28;20123;-43
2024/01/28 22:03:06;;;;;;;28.25;14.50;;;23.50;44.20;;;;;;10466126;28;20139;-45
2024/01/28 22:08:08;;;;;;;27.40;17.58;;;23.30;43.70;;;;;;10467456;28;20040;-47
2024/01/28 22:13:11;;;;;;;29.90;18.42;;;23.40;43.70;;;;;;10468116;28;20111;-44
2024/01/28 22:18:12;;;;;;;35.15;19.27;;;23.30;43.80;;;;;;10470709;28;20099;-45
2024/01/28 22:23:14;;;;;;;32.55;20.25;;;23.30;43.90;;;;;;10454160;28;20045;-44
2024/01/28 22:28:17;;;;;;;32.92;21.05;;;23.20;43.70;;;;;;10465915;28;20052;-44
2024/01/28 22:33:21;;;;;;;28.63;20.90;;;23.20;43.80;;;;;;10461979;28;20067;-45
2024/01/28 22:38:22;;;;;;;30.70;20.45;;;23.20;43.50;;;;;;10462537;28;20041;-45
2024/01/28 22:43:25;;;;;;;33.83;21.48;;;23.10;43.50;;;;;;10468135;28;20048;-45
2024/01/28 22:48:28;;;;;;;30.27;19.88;;;23.00;43.50;;;;;;10462328;28;20041;-44
2024/01/28 22:53:30;;;;;;;30.88;19.80;;;23.00;43.40;;;;;;10465071;28;20037;-45
2024/01/28 22:58:33;;;;;;;30.48;18.38;;;22.90;43.40;;;;;;10455869;28;20083;-49
2024/01/28 23:03:35;;;;;;;27.80;18.70;;;23.00;43.20;;;;;;10458565;28;20045;-49
2024/01/28 23:08:36;;;;;;;28.02;17.90;;;22.90;43.30;;;;;;10460820;28;20051;-47
2024/01/28 23:13:40;;;;;;;25.15;17.52;;;22.90;43.20;;;;;;10459594;28;20556;-45
2024/01/28 23:18:41;;;;;;;22.85;16.33;;;22.80;43.10;;;;;;10464883;28;20048;-45
2024/01/28 23:23:46;;;;;;;25.70;16.48;;;22.90;43.10;;;;;;10459939;28;20041;-48
2024/01/28 23:28:49;;;;;;;23.10;16.38;;;22.90;43.00;;;;;;10463545;28;20076;-45
2024/01/28 23:33:51;;;;;;;22.15;15.70;;;22.80;43.00;;;;;;10472178;28;20045;-44
2024/01/28 23:38:52;;;;;;;21.33;15.25;;;22.80;43.00;;;;;;10456136;28;20045;-47
2024/01/28 23:43:55;;;;;;;20.58;14.30;;;22.70;43.00;;;;;;10460294;28;20055;-44
2024/01/28 23:48:57;;;;;;;22.90;14.82;;;22.80;42.80;;;;;;10463743;28;20062;-43
2024/01/28 23:53:58;;;;;;;21.00;14.40;;;22.80;42.80;;;;;;10463276;28;20119;-46
2024/01/28 23:59:01;;;;;;;20.65;14.45;;;22.70;43.00;;;;;;10459087;28;20076;-43
